Inverness, Montana
Current Conditions -  °F | °C
As of 2:53 PM on Sunday 25 Jan 2015 (Local Time) from KHVR Reporting Station
Clear Clear  
Wind Chill: 41°   Ceiling: Unl
Heat Index: 49°   Visibility: 10mi
Dew Point: 38°   Wind: 25mph
Humidity: 66%   Direction: 210°SSW
Pressure: 29.88"   Gusts: 31mph
Location:  48.56°N, 110.69°W
Report Text: KHVR 252153Z AUTO 21022G27KT 10SM CLR 09/03 A2988 RMK AO2 PK WND 21027/2151 SLP136 T00940033
Loading
Personal Weather Stations






























Interactive Weather Map New forecast layout! Learn more

10-Day Weather Forecast

Advertisements
Track Severe Weather on mobile